createdAt,value
2019-02-22T00:04:22.347Z,88.00
2019-02-22T00:10:24.608Z,88.50
2019-02-22T00:16:26.932Z,88.20
2019-02-22T00:22:29.064Z,88.30
2019-02-22T00:28:31.385Z,88.00
2019-02-22T00:34:33.719Z,88.30
2019-02-22T00:40:35.887Z,88.10
2019-02-22T00:46:38.114Z,87.70
2019-02-22T00:52:40.322Z,86.80
2019-02-22T00:58:42.500Z,86.40
2019-02-22T01:04:44.627Z,86.10
2019-02-22T01:10:46.761Z,85.80
2019-02-22T01:16:49.000Z,85.70
2019-02-22T01:22:51.242Z,85.30
2019-02-22T01:28:53.492Z,84.90
2019-02-22T01:34:57.680Z,84.80
2019-02-22T01:40:59.861Z,84.70
2019-02-22T01:47:02.051Z,84.90
2019-02-22T01:53:05.449Z,84.20
2019-02-22T01:59:07.594Z,84.00
2019-02-22T02:05:09.751Z,83.80
2019-02-22T02:11:11.949Z,83.60
2019-02-22T02:17:14.123Z,83.90
2019-02-22T02:23:16.479Z,83.50
2019-02-22T02:29:19.903Z,83.30
2019-02-22T02:35:23.053Z,83.50
2019-02-22T02:41:25.215Z,83.50
2019-02-22T02:47:27.377Z,84.40
2019-02-22T02:53:29.488Z,86.10
2019-02-22T02:59:31.608Z,88.00
2019-02-22T03:05:35.642Z,88.90
2019-02-22T03:11:37.903Z,89.80
2019-02-22T03:17:40.126Z,90.40
2019-02-22T03:23:42.314Z,90.70
2019-02-22T03:29:44.713Z,90.90
2019-02-22T03:35:46.959Z,91.20
2019-02-22T03:41:49.092Z,91.50
2019-02-22T03:47:51.344Z,91.70
2019-02-22T03:53:54.116Z,91.90
2019-02-22T03:59:56.490Z,92.20
2019-02-22T04:05:58.640Z,92.40
2019-02-22T04:12:00.847Z,92.60
2019-02-22T04:18:03.199Z,92.90
2019-02-22T04:24:05.344Z,93.00
2019-02-22T04:30:08.010Z,93.20
2019-02-22T04:36:10.335Z,93.40
2019-02-22T04:42:12.484Z,93.40
2019-02-22T04:48:14.754Z,93.20
2019-02-22T04:54:16.891Z,93.10
2019-02-22T05:00:19.267Z,93.10
2019-02-22T05:06:21.393Z,93.00
2019-02-22T05:12:23.607Z,93.00
2019-02-22T05:18:25.811Z,92.80
2019-02-22T05:24:28.143Z,92.80
2019-02-22T05:30:30.928Z,92.70
2019-02-22T05:36:33.187Z,92.50
2019-02-22T05:42:35.371Z,92.20
2019-02-22T05:48:38.891Z,92.00
2019-02-22T05:54:43.324Z,92.00
2019-02-22T06:00:45.627Z,91.90
2019-02-22T06:06:47.789Z,91.90
2019-02-22T06:12:50.008Z,91.80
2019-02-22T06:18:52.275Z,91.80
2019-02-22T06:24:54.520Z,92.00
2019-02-22T06:30:56.799Z,92.00
2019-02-22T06:37:02.306Z,91.90
2019-02-22T06:43:04.679Z,92.10
2019-02-22T06:49:06.975Z,92.10
2019-02-22T06:55:10.161Z,92.20
2019-02-22T07:01:12.374Z,92.20
2019-02-22T07:07:14.703Z,92.20
2019-02-22T07:13:24.359Z,92.20
2019-02-22T07:19:26.692Z,92.20
2019-02-22T07:25:28.903Z,92.10
2019-02-22T07:31:31.144Z,92.00
2019-02-22T07:37:33.341Z,91.90
2019-02-22T07:43:35.501Z,91.70
2019-02-22T07:49:37.667Z,91.70
2019-02-22T07:55:40.920Z,91.50
2019-02-22T08:01:47.333Z,91.30
2019-02-22T08:07:47.489Z,91.10
2019-02-22T08:13:49.625Z,91.00
2019-02-22T08:19:54.679Z,90.70
2019-02-22T08:25:56.972Z,90.60
2019-02-22T08:31:59.352Z,90.40
2019-02-22T08:38:01.645Z,90.30
2019-02-22T08:44:04.193Z,90.00
2019-02-22T08:50:06.490Z,89.80
2019-02-22T08:56:09.968Z,89.50
2019-02-22T09:02:12.260Z,89.00
2019-02-22T09:08:14.637Z,88.50
2019-02-22T09:14:16.922Z,89.50
2019-02-22T09:20:27.407Z,88.20
2019-02-22T09:26:29.668Z,87.50
2019-02-22T09:32:31.860Z,87.40
2019-02-22T09:38:35.379Z,87.30
2019-02-22T09:44:37.751Z,86.70
2019-02-22T09:50:41.176Z,86.50
2019-02-22T09:56:43.411Z,86.20
2019-02-22T10:02:45.744Z,86.40
2019-02-22T10:08:49.414Z,85.80
2019-02-22T10:14:53.988Z,85.90
2019-02-22T10:20:56.414Z,83.90
2019-02-22T10:26:58.677Z,80.20
2019-02-22T10:33:01.000Z,78.80
2019-02-22T10:39:06.089Z,76.10
2019-02-22T10:45:08.549Z,75.70
2019-02-22T10:51:10.723Z,72.70
2019-02-22T10:57:13.056Z,72.90
2019-02-22T11:03:15.246Z,74.80
2019-02-22T11:09:17.740Z,75.10
2019-02-22T11:15:20.002Z,75.80
2019-02-22T11:21:22.441Z,75.40
2019-02-22T11:27:24.621Z,74.60
2019-02-22T11:33:26.803Z,73.90
2019-02-22T11:39:29.012Z,72.90
2019-02-22T11:45:31.119Z,74.60
2019-02-22T11:51:33.305Z,74.40
2019-02-22T11:57:35.500Z,75.20
2019-02-22T12:03:37.882Z,77.80
2019-02-22T12:09:40.192Z,77.60
2019-02-22T12:15:42.649Z,78.40
2019-02-22T12:21:44.971Z,74.80
2019-02-22T12:27:47.155Z,73.00
2019-02-22T12:33:49.368Z,74.20
2019-02-22T12:39:51.603Z,72.90
2019-02-22T12:45:53.756Z,72.50
2019-02-22T12:51:55.885Z,72.40
2019-02-22T12:57:58.183Z,69.70
2019-02-22T13:04:01.471Z,71.60
2019-02-22T13:10:04.227Z,70.70
2019-02-22T13:16:08.749Z,69.10
2019-02-22T13:22:10.959Z,70.20
2019-02-22T13:28:13.232Z,71.70
2019-02-22T13:34:15.477Z,74.20
2019-02-22T13:40:17.759Z,75.70
2019-02-22T13:46:19.935Z,76.30
2019-02-22T13:52:22.362Z,75.60
2019-02-22T13:58:24.708Z,75.30
2019-02-22T14:04:29.140Z,75.50
2019-02-22T14:10:31.540Z,75.40
2019-02-22T14:16:33.829Z,76.30
2019-02-22T14:22:39.359Z,75.30
2019-02-22T14:28:41.442Z,75.90
2019-02-22T14:34:44.621Z,76.00
2019-02-22T14:40:46.980Z,77.00
2019-02-22T14:46:49.143Z,77.50
2019-02-22T14:52:51.540Z,77.60
2019-02-22T14:58:54.030Z,77.10
2019-02-22T15:04:56.792Z,77.50
2019-02-22T15:10:58.939Z,78.20
2019-02-22T15:17:15.177Z,77.60
2019-02-22T15:23:17.521Z,77.80
2019-02-22T15:29:19.748Z,77.20
2019-02-22T15:35:22.008Z,77.40
2019-02-22T15:41:24.237Z,77.70
2019-02-22T15:47:26.362Z,78.00
2019-02-22T15:53:28.864Z,78.40
2019-02-22T15:59:31.201Z,78.80
2019-02-22T16:05:44.675Z,79.50
2019-02-22T16:11:47.032Z,79.90
2019-02-22T16:17:51.392Z,80.70
2019-02-22T16:23:53.836Z,81.20
2019-02-22T16:29:56.513Z,80.70
2019-02-22T16:36:00.934Z,81.10
2019-02-22T16:42:03.355Z,81.20
2019-02-22T16:48:05.643Z,80.70
2019-02-22T16:54:07.975Z,81.00
2019-02-22T17:00:12.128Z,80.40
2019-02-22T17:06:16.459Z,80.00
2019-02-22T17:12:18.756Z,79.10
2019-02-22T17:18:22.042Z,77.80
2019-02-22T17:24:25.397Z,76.20
2019-02-22T17:30:28.829Z,76.20
2019-02-22T17:36:32.200Z,76.80
2019-02-22T17:42:36.594Z,76.80
2019-02-22T17:48:38.750Z,76.40
2019-02-22T17:54:40.951Z,76.70
2019-02-22T18:00:43.374Z,77.20
2019-02-22T18:06:45.664Z,76.20
2019-02-22T18:12:48.189Z,76.20
2019-02-22T18:18:51.689Z,72.90
2019-02-22T18:24:54.058Z,74.50
2019-02-22T18:30:56.455Z,75.10
2019-02-22T18:36:58.856Z,75.30
2019-02-22T18:43:01.156Z,75.90
2019-02-22T18:49:03.543Z,75.70
2019-02-22T18:55:06.317Z,75.00
2019-02-22T19:01:08.566Z,75.00
2019-02-22T19:07:10.863Z,74.60
2019-02-22T19:13:13.119Z,75.00
2019-02-22T19:19:15.468Z,75.60
2019-02-22T19:25:17.739Z,76.20
2019-02-22T19:31:21.883Z,76.20
2019-02-22T19:37:24.359Z,76.50
2019-02-22T19:43:26.651Z,77.20
2019-02-22T19:49:29.976Z,76.90
2019-02-22T19:55:32.353Z,76.90
2019-02-22T20:01:34.692Z,75.80
2019-02-22T20:07:37.004Z,75.90
2019-02-22T20:13:39.431Z,75.60
2019-02-22T20:19:41.825Z,73.60
2019-02-22T20:25:44.040Z,73.30
2019-02-22T20:31:46.291Z,72.90
2019-02-22T20:37:53.132Z,73.50
2019-02-22T20:43:54.714Z,74.70
2019-02-22T20:49:56.870Z,72.50
2019-02-22T20:55:59.134Z,72.20
2019-02-22T21:02:01.311Z,72.00
2019-02-22T21:08:03.868Z,72.10
2019-02-22T21:14:06.096Z,72.50
2019-02-22T21:20:09.238Z,70.30
2019-02-22T21:26:11.428Z,70.20
2019-02-22T21:32:13.583Z,71.80
2019-02-22T21:38:17.858Z,72.10
2019-02-22T21:44:20.228Z,72.50
2019-02-22T21:50:24.137Z,71.60
2019-02-22T21:56:26.495Z,70.50
2019-02-22T22:02:28.766Z,70.70
2019-02-22T22:08:30.921Z,70.50
2019-02-22T22:14:33.316Z,70.30
2019-02-22T22:20:35.586Z,70.30
2019-02-22T22:26:37.857Z,69.80
2019-02-22T22:32:40.226Z,71.30
2019-02-22T22:38:42.431Z,70.70
2019-02-22T22:44:44.731Z,74.60
2019-02-22T22:50:46.896Z,74.50
2019-02-22T22:56:49.151Z,74.00
2019-02-22T23:02:51.393Z,72.70
2019-02-22T23:08:53.704Z,70.90
2019-02-22T23:14:55.915Z,69.80
2019-02-22T23:20:58.061Z,69.20
2019-02-22T23:27:00.199Z,68.70
2019-02-22T23:33:02.484Z,68.40
2019-02-22T23:39:07.089Z,68.20
2019-02-22T23:45:10.442Z,69.10
2019-02-22T23:51:12.622Z,68.50
2019-02-22T23:57:14.782Z,69.70
